Current Conditions
Clear
Conditions



Pressure
29.97 (inHG) - 1014.9 (mb)
Visibility

10.0 (miles) - 16.1 (km)
Temperature
41  °F
Temperature
37  °F
Dewpoint
87  %
 Humidity
Wind Speed
0  mph
0  kts
0  km/h
0  m/s
Wind Direction
N
45°
E
90°
135°
S
180°
225°
W
270°
315°
Calm

Due North
Airport Data
KMHT
Manchester-Boston Regional Airport
Metar :KMHT 160553Z 00000KT 10SM CLR 05/03 A2997 RMK AO2 SLP163 T00500033 10133 20050 51013
Tue 16th April 01:53 am
Raw Metar Info
Raw METAR is the most common format in the world for the transmission of observational weather data. It is highly standardized through the International Civil Aviation Organization (ICAO), which allows it to be understood throughout most of the world.
API Info
Data Provided by
https://www.checkwx.com/weather/KMHT

Aviation Weather providing METAR, TAF, AIRMET, SIGMET and OUTLOOK Weather Reports
© Info
CSS/SVG/PHP scripts were developed by weather34 for use in the weather34 template © 2015-2024

Guide Info provided by Metar-Wikipedia